Time;durP1;ratioP1;P1;durP2;ratioP2;P2;SDS_P1;SDS_P2;PMS_P1;PMS_P2;Temp;Humidity;BMP_temperature;BMP_pressure;BME280_temperature;BME280_humidity;BME280_pressure;Samples;Min_cycle;Max_cycle;Signal;HPM_P1;HPM_P2
2022/09/18 00:01:21;;;;;;;5.03;1.00;;;;;;;15.16;69.71;101753.84;6173197;23;20448;-38
2022/09/18 00:03:47;;;;;;;6.70;0.90;;;;;;;14.99;69.00;101744.94;6163779;23;20016;-39
2022/09/18 00:06:16;;;;;;;3.67;0.75;;;;;;;15.21;66.84;101746.88;6191663;22;20427;-38
2022/09/18 00:08:44;;;;;;;6.35;0.70;;;;;;;15.20;67.11;101739.88;6162424;23;20020;-38
2022/09/18 00:11:12;;;;;;;6.65;0.88;;;;;;;15.13;67.68;101751.19;6168042;23;20010;-38
2022/09/18 00:13:39;;;;;;;4.43;0.98;;;;;;;15.41;67.80;101750.56;6161532;23;20008;-39
2022/09/18 00:16:08;;;;;;;4.80;1.10;;;;;;;15.41;68.19;101750.56;6153500;23;20017;-39
2022/09/18 00:18:35;;;;;;;8.20;0.80;;;;;;;15.55;67.62;101750.69;6156397;23;20593;-38
2022/09/18 00:21:07;;;;;;;5.80;0.80;;;;;;;15.30;67.88;101746.09;6163983;23;20457;-38
2022/09/18 00:23:34;;;;;;;5.78;0.70;;;;;;;15.13;67.30;101751.19;6171360;23;20027;-38
2022/09/18 00:25:59;;;;;;;4.50;0.70;;;;;;;15.12;66.37;101749.44;6144961;23;20812;-37
2022/09/18 00:28:25;;;;;;;3.28;0.70;;;;;;;15.34;65.27;101746.13;6169957;23;20012;-37
2022/09/18 00:30:50;;;;;;;4.05;0.70;;;;;;;15.49;64.29;101742.69;6174455;23;20001;-38
2022/09/18 00:33:15;;;;;;;2.30;0.57;;;;;;;15.28;64.91;101735.56;6159120;23;20009;-38
2022/09/18 00:35:42;;;;;;;5.45;0.80;;;;;;;15.10;65.79;101739.78;6168206;22;20012;-38
2022/09/18 00:38:08;;;;;;;6.75;0.93;;;;;;;15.28;65.29;101739.94;6155384;23;20008;-38
2022/09/18 00:40:33;;;;;;;4.53;0.80;;;;;;;15.29;66.33;101745.22;6170575;23;20478;-37
2022/09/18 00:43:23;;;;;;;6.35;0.77;;;;;;;15.39;65.15;101744.41;6175134;23;20076;-38
2022/09/18 00:45:58;;;;;;;8.45;0.95;;;;;;;15.37;65.46;101763.63;6164886;23;20016;-38
2022/09/18 00:48:32;;;;;;;9.57;1.45;;;;;;;14.17;73.50;101775.47;6167192;23;20017;-39
2022/09/18 00:50:59;;;;;;;6.07;1.00;;;;;;;14.67;72.06;101783.09;6169961;23;20012;-38
2022/09/18 00:53:26;;;;;;;6.05;1.08;;;;;;;14.49;72.24;101773.28;6164790;23;20018;-38
2022/09/18 00:55:55;;;;;;;4.38;0.80;;;;;;;14.75;71.02;101752.59;6168835;23;20838;-37
2022/09/18 00:58:20;;;;;;;6.43;0.73;;;;;;;14.91;69.87;101750.13;6160783;23;20403;-37
2022/09/18 01:00:46;;;;;;;7.38;0.68;;;;;;;14.79;70.36;101763.13;6168546;23;20020;-37
2022/09/18 01:03:11;;;;;;;9.35;0.90;;;;;;;14.74;70.10;101751.72;6161137;23;20012;-37
2022/09/18 01:05:39;;;;;;;4.35;0.77;;;;;;;14.66;70.75;101745.47;6164482;23;20277;-38
2022/09/18 01:08:22;;;;;;;6.97;0.90;;;;;;;14.97;70.08;101746.66;6159012;23;20081;-37
2022/09/18 01:11:17;;;;;;;7.22;0.90;;;;;;;14.81;70.96;101737.78;6160147;23;20857;-38
2022/09/18 01:13:42;;;;;;;4.97;0.80;;;;;;;15.00;70.52;101738.84;6177552;23;20563;-38
2022/09/18 01:16:38;;;;;;;4.28;0.80;;;;;;;14.98;70.65;101737.94;6160873;23;20441;-38
2022/09/18 01:19:24;;;;;;;8.75;0.90;;;;;;;14.80;71.64;101735.13;6168424;23;20480;-38
2022/09/18 01:22:21;;;;;;;9.80;0.90;;;;;;;15.10;70.49;101731.91;6169168;23;20023;-38
2022/09/18 01:24:49;;;;;;;5.65;0.80;;;;;;;15.00;70.33;101729.19;6162489;23;20023;-38
2022/09/18 01:27:26;;;;;;;16.15;1.05;;;;;;;15.08;69.90;101724.00;6168107;23;20027;-38
2022/09/18 01:30:03;;;;;;;4.78;0.75;;;;;;;15.04;70.24;101722.22;6168838;23;20016;-38
2022/09/18 01:32:35;;;;;;;2.28;0.60;;;;;;;15.16;69.69;101718.81;6159729;23;20031;-38
2022/09/18 01:35:13;;;;;;;5.22;0.90;;;;;;;15.18;69.27;101712.72;6172256;23;20554;-37
2022/09/18 01:37:46;;;;;;;5.57;0.77;;;;;;;14.82;69.35;101718.50;6167541;23;20008;-37
2022/09/18 01:40:19;;;;;;;6.30;0.65;;;;;;;15.11;68.74;101712.66;6157136;23;20070;-37
2022/09/18 01:42:47;;;;;;;6.00;0.90;;;;;;;15.10;68.30;101714.41;6162157;23;20052;-38
2022/09/18 01:45:18;;;;;;;7.80;0.98;;;;;;;15.02;68.45;101716.97;6165890;23;20013;-37
2022/09/18 01:47:56;;;;;;;8.20;0.75;;;;;;;15.26;67.75;101712.75;6159616;23;20027;-38
2022/09/18 01:50:26;;;;;;;4.68;0.80;;;;;;;15.28;68.10;101706.66;6164648;23;20016;-37
2022/09/18 01:53:04;;;;;;;5.18;0.90;;;;;;;15.25;68.46;101708.38;6163454;23;20009;-38
2022/09/18 01:55:33;;;;;;;5.78;0.77;;;;;;;15.39;68.36;101712.00;6171874;23;20015;-37
2022/09/18 01:58:19;;;;;;;7.90;1.00;;;;;;;15.52;68.46;101708.63;6159535;23;20139;-38
2022/09/18 02:00:51;;;;;;;11.50;1.20;;;;;;;15.49;68.59;101713.78;6166650;23;20040;-37
2022/09/18 02:03:44;;;;;;;10.30;0.90;;;;;;;15.16;69.32;101709.19;6162722;23;20054;-35
2022/09/18 02:06:27;;;;;;;6.10;1.10;;;;;;;15.47;68.55;101704.16;6164704;23;20329;-37
2022/09/18 02:08:55;;;;;;;5.85;1.10;;;;;;;15.65;67.94;101710.44;6167962;23;20056;-36
2022/09/18 02:11:23;;;;;;;8.88;1.05;;;;;;;15.59;68.60;101707.78;6164642;23;20383;-38
2022/09/18 02:14:13;;;;;;;6.82;1.20;;;;;;;15.91;67.42;101705.34;6173920;23;20009;-36
2022/09/18 02:16:45;;;;;;;8.40;1.20;;;;;;;15.74;68.44;101709.59;6168535;23;20115;-36
2022/09/18 02:19:29;;;;;;;7.45;1.10;;;;;;;15.53;67.84;101705.13;6170950;23;20089;-40
2022/09/18 02:21:57;;;;;;;8.00;1.00;;;;;;;15.50;67.58;101705.03;6157412;23;20004;-37
2022/09/18 02:24:29;;;;;;;7.53;1.05;;;;;;;15.55;68.03;101697.25;6167675;23;20084;-36
2022/09/18 02:26:56;;;;;;;4.38;0.80;;;;;;;15.76;66.47;101695.59;6161484;23;20023;-37
2022/09/18 02:29:23;;;;;;;7.13;1.10;;;;;;;15.50;65.67;101706.78;6170437;22;20379;-37
2022/09/18 02:31:57;;;;;;;5.20;0.70;;;;;;;15.53;65.50;101704.25;6176206;23;20084;-36
2022/09/18 02:34:23;;;;;;;4.05;1.17;;;;;;;15.61;66.18;101705.16;6154967;23;20464;-36
2022/09/18 02:37:21;;;;;;;4.55;0.85;;;;;;;15.67;65.89;101705.22;6160898;23;20005;-37
2022/09/18 02:40:06;;;;;;;5.28;0.90;;;;;;;15.69;66.34;101700.81;6168617;23;20161;-36
2022/09/18 02:42:52;;;;;;;3.03;0.90;;;;;;;15.71;66.92;101692.09;6156417;22;20747;-37
2022/09/18 02:45:20;;;;;;;5.63;0.85;;;;;;;15.84;66.33;101690.41;6169010;23;20818;-36
2022/09/18 02:48:01;;;;;;;9.73;1.23;;;;;;;15.63;67.75;101701.66;6162066;23;20026;-36
2022/09/18 02:50:40;;;;;;;4.55;0.80;;;;;;;15.63;67.75;101706.03;6173902;23;20087;-36
2022/09/18 02:53:32;;;;;;;4.43;0.82;;;;;;;15.58;65.59;101698.13;6163009;23;20040;-37
2022/09/18 02:56:09;;;;;;;3.75;0.80;;;;;;;15.79;65.57;101685.13;6162307;23;20057;-37
2022/09/18 02:58:57;;;;;;;6.70;1.00;;;;;;;15.55;65.50;101692.00;6164309;23;20083;-36
2022/09/18 03:01:28;;;;;;;3.42;0.60;;;;;;;15.83;64.92;101688.63;6160555;23;20612;-41
2022/09/18 03:04:00;;;;;;;3.15;0.70;;;;;;;15.55;65.73;101684.13;6164550;23;20012;-36
2022/09/18 03:06:25;;;;;;;8.30;1.00;;;;;;;15.61;65.67;101686.78;6167227;23;20087;-36
2022/09/18 03:08:51;;;;;;;4.93;0.90;;;;;;;15.87;64.99;101682.50;6166308;23;20013;-36
2022/09/18 03:11:16;;;;;;;7.43;1.00;;;;;;;15.87;65.33;101682.50;6164795;22;20096;-36
2022/09/18 03:13:41;;;;;;;7.47;1.20;;;;;;;15.66;65.28;101685.94;6173083;23;20327;-37
2022/09/18 03:16:08;;;;;;;7.53;0.90;;;;;;;15.52;64.63;101690.22;6157401;23;20663;-37
2022/09/18 03:18:33;;;;;;;6.32;1.02;;;;;;;15.31;65.50;101692.66;6160128;23;20238;-36
2022/09/18 03:20:58;;;;;;;5.22;0.80;;;;;;;15.37;64.27;101690.06;6165813;23;20660;-36
2022/09/18 03:23:24;;;;;;;5.85;0.90;;;;;;;15.98;63.84;101677.31;6170970;23;20048;-37
2022/09/18 03:25:50;;;;;;;7.80;1.00;;;;;;;15.75;64.81;101680.69;6167664;23;20095;-37
2022/09/18 03:28:16;;;;;;;6.43;1.13;;;;;;;16.00;64.80;101675.56;6154182;23;20528;-36
2022/09/18 03:30:43;;;;;;;7.38;1.08;;;;;;;15.98;64.81;101674.69;6162730;23;20016;-36
2022/09/18 03:33:09;;;;;;;7.70;0.80;;;;;;;16.12;64.56;101679.09;6166423;23;20159;-36
2022/09/18 03:35:34;;;;;;;6.30;0.90;;;;;;;15.87;65.84;101669.34;6163883;22;20063;-36
2022/09/18 03:37:59;;;;;;;5.55;0.90;;;;;;;15.87;65.28;101669.34;6159228;23;20990;-36
2022/09/18 03:40:25;;;;;;;8.50;0.90;;;;;;;15.83;65.29;101667.59;6160980;23;20436;-36
2022/09/18 03:42:50;;;;;;;4.28;0.75;;;;;;;15.75;65.06;101675.44;6176010;23;20028;-37
2022/09/18 03:45:16;;;;;;;7.10;1.23;;;;;;;15.54;66.32;101682.34;6165142;23;20008;-37
2022/09/18 03:47:42;;;;;;;8.68;1.25;;;;;;;15.50;67.50;101676.13;6161798;22;20023;-39
2022/09/18 03:50:07;;;;;;;6.70;1.02;;;;;;;15.67;67.48;101671.03;6166423;23;20005;-38
2022/09/18 03:52:33;;;;;;;4.85;0.82;;;;;;;15.38;68.37;101676.94;6162546;22;20013;-38
2022/09/18 03:54:58;;;;;;;5.78;0.90;;;;;;;15.41;68.25;101676.97;6196950;23;20071;-39
2022/09/18 03:57:24;;;;;;;5.50;0.90;;;;;;;15.40;68.26;101682.22;6162258;23;20008;-39
2022/09/18 03:59:49;;;;;;;8.38;1.20;;;;;;;14.86;69.58;101680.94;6162745;23;20020;-37
2022/09/18 04:02:15;;;;;;;6.35;0.90;;;;;;;15.07;68.91;101676.72;6157998;23;20462;-37
2022/09/18 04:04:41;;;;;;;5.22;0.75;;;;;;;14.71;68.04;101675.53;6165229;23;20443;-36
2022/09/18 04:07:07;;;;;;;4.80;0.90;;;;;;;15.05;68.07;101678.47;6160987;23;20538;-37
2022/09/18 04:09:33;;;;;;;5.50;0.73;;;;;;;15.09;67.43;101682.88;6169015;23;20398;-38
2022/09/18 04:12:01;;;;;;;7.78;0.80;;;;;;;15.01;68.05;101688.94;6161119;23;20012;-37
2022/09/18 04:14:27;;;;;;;5.13;0.80;;;;;;;14.97;68.13;101684.53;6175148;23;20005;-37
2022/09/18 04:16:53;;;;;;;5.80;0.70;;;;;;;15.10;67.55;101690.75;6160726;23;20016;-36
2022/09/18 04:19:21;;;;;;;4.25;0.65;;;;;;;15.14;66.60;101673.28;6188876;23;20012;-37
2022/09/18 04:21:47;;;;;;;1.75;0.55;;;;;;;15.13;67.26;101679.38;6163795;23;20016;-36
2022/09/18 04:24:16;;;;;;;3.35;0.57;;;;;;;15.30;64.98;101676.03;6158033;23;20371;-37
2022/09/18 04:26:42;;;;;;;4.47;0.68;;;;;;;15.50;63.86;101672.63;6170023;23;20036;-36
2022/09/18 04:29:07;;;;;;;4.10;0.50;;;;;;;15.48;63.47;101674.41;6167169;22;20094;-36
2022/09/18 04:31:32;;;;;;;1.15;0.40;;;;;;;15.52;63.19;101671.81;6165579;23;20009;-36
2022/09/18 04:33:58;;;;;;;2.97;0.50;;;;;;;15.34;62.86;101674.28;6161274;23;20414;-37
2022/09/18 04:36:23;;;;;;;4.55;0.55;;;;;;;15.48;62.48;101671.75;6162477;23;20044;-37
2022/09/18 04:38:49;;;;;;;3.60;0.57;;;;;;;15.49;63.77;101677.00;6167133;23;20008;-40
2022/09/18 04:41:14;;;;;;;4.05;0.70;;;;;;;15.32;64.29;101683.91;6169982;23;20008;-37
2022/09/18 04:43:39;;;;;;;2.20;0.35;;;;;;;15.23;62.21;101681.22;6162352;23;20031;-37
2022/09/18 04:46:05;;;;;;;1.80;0.40;;;;;;;15.18;63.03;101681.22;6158576;22;20079;-37
2022/09/18 04:48:30;;;;;;;4.00;0.57;;;;;;;15.32;63.78;101676.03;6161981;22;20452;-36
2022/09/18 04:50:55;;;;;;;4.50;0.57;;;;;;;15.46;64.00;101665.59;6158869;23;20118;-38
2022/09/18 04:53:21;;;;;;;4.40;0.50;;;;;;;15.15;66.03;101664.53;6170068;23;20178;-36
2022/09/18 04:55:47;;;;;;;4.60;0.60;;;;;;;15.18;65.89;101672.44;6165168;23;20635;-38
2022/09/18 04:58:14;;;;;;;4.30;0.68;;;;;;;15.12;67.02;101662.78;6164722;23;20856;-43
2022/09/18 05:00:40;;;;;;;5.05;0.70;;;;;;;15.27;65.85;101654.09;6157872;23;20023;-38
2022/09/18 05:03:07;;;;;;;3.58;0.55;;;;;;;15.22;65.97;101651.44;6170404;23;20420;-38
2022/09/18 05:05:32;;;;;;;3.92;0.70;;;;;;;15.29;66.49;101649.75;6166650;23;20103;-38
2022/09/18 05:07:58;;;;;;;3.03;0.60;;;;;;;15.38;65.91;101642.78;6146875;23;20414;-37
2022/09/18 05:10:24;;;;;;;5.10;0.60;;;;;;;15.49;65.86;101637.59;6172024;23;20088;-37
2022/09/18 05:12:49;;;;;;;4.10;0.80;;;;;;;15.62;65.54;101635.94;6160525;23;20707;-38
2022/09/18 05:15:15;;;;;;;4.30;0.80;;;;;;;15.60;65.56;101637.69;6164237;23;20012;-36
2022/09/18 05:17:40;;;;;;;4.25;0.70;;;;;;;15.52;66.48;101642.00;6166306;23;20044;-36
2022/09/18 05:20:07;;;;;;;5.90;0.80;;;;;;;15.48;67.12;101641.13;6153119;23;20353;-37
2022/09/18 05:22:33;;;;;;;4.13;0.70;;;;;;;15.58;66.96;101635.06;6176375;23;20012;-37
2022/09/18 05:24:59;;;;;;;2.80;0.70;;;;;;;15.54;67.17;101637.66;6160798;22;20012;-36
2022/09/18 05:27:24;;;;;;;3.55;0.60;;;;;;;15.35;67.88;101637.53;6168431;23;20012;-38
2022/09/18 05:29:49;;;;;;;3.90;0.85;;;;;;;14.97;68.41;101637.25;6168406;22;20000;-38
2022/09/18 05:32:18;;;;;;;5.05;0.73;;;;;;;15.34;67.14;101642.78;6156905;22;20079;-38
2022/09/18 05:34:44;;;;;;;3.22;0.70;;;;;;;15.51;67.71;101642.84;6167431;22;20023;-37
2022/09/18 05:37:09;;;;;;;6.07;1.00;;;;;;;15.58;67.64;101640.31;6164803;23;20115;-37
2022/09/18 05:39:34;;;;;;;5.85;0.98;;;;;;;15.91;66.72;101636.97;6171502;23;20012;-37
2022/09/18 05:42:00;;;;;;;7.45;1.20;;;;;;;15.62;68.28;101639.44;6164116;23;20510;-36
2022/09/18 05:44:25;;;;;;;7.82;0.90;;;;;;;15.80;67.69;101638.66;6167004;23;20084;-39
2022/09/18 05:46:50;;;;;;;8.13;0.80;;;;;;;15.54;67.94;101651.69;6178854;22;20020;-37
2022/09/18 05:49:16;;;;;;;7.55;1.10;;;;;;;15.47;69.25;101639.34;6165129;23;20042;-38
2022/09/18 05:51:41;;;;;;;7.15;0.90;;;;;;;15.51;69.35;101646.38;6174120;23;20606;-39
2022/09/18 05:54:09;;;;;;;5.38;0.77;;;;;;;15.97;67.86;101651.88;6156678;23;20040;-44
2022/09/18 05:56:34;;;;;;;5.25;0.80;;;;;;;15.85;69.02;101647.47;6170213;23;20095;-40
2022/09/18 05:59:00;;;;;;;8.68;1.30;;;;;;;15.73;70.25;101652.66;6162775;23;20481;-37
2022/09/18 06:01:25;;;;;;;7.35;1.20;;;;;;;16.05;69.00;101644.88;6162328;22;20111;-39
2022/09/18 06:03:52;;;;;;;6.90;1.00;;;;;;;15.46;69.87;101650.72;6145060;23;20040;-40
2022/09/18 06:06:18;;;;;;;3.92;0.90;;;;;;;15.80;68.70;101639.53;6162631;23;20558;-38
2022/09/18 06:08:43;;;;;;;5.28;0.90;;;;;;;15.62;69.84;101633.31;6170723;23;20016;-39
2022/09/18 06:11:08;;;;;;;5.35;0.90;;;;;;;15.74;69.50;101638.63;6174987;23;20008;-39
2022/09/18 06:13:34;;;;;;;5.10;0.88;;;;;;;15.67;70.32;101637.75;6167552;22;20027;-39
2022/09/18 06:15:59;;;;;;;4.90;1.08;;;;;;;15.87;69.60;101635.19;6165303;23;20008;-39
2022/09/18 06:18:25;;;;;;;4.60;0.80;;;;;;;15.89;69.72;101627.31;6169854;23;20460;-38
2022/09/18 06:20:56;;;;;;;3.53;0.70;;;;;;;15.89;69.85;101638.69;6169164;23;20031;-39
2022/09/18 06:23:26;;;;;;;6.55;1.30;;;;;;;15.75;70.94;101628.13;6171110;23;20092;-40
2022/09/18 06:26:05;;;;;;;5.47;1.42;;;;;;;15.73;71.38;101631.63;6171325;23;20359;-40
2022/09/18 06:28:31;;;;;;;7.78;1.00;;;;;;;15.93;70.79;101632.56;6170334;23;20008;-39
2022/09/18 06:31:00;;;;;;;6.18;1.25;;;;;;;15.99;70.42;101631.72;6169419;22;20023;-40
2022/09/18 06:33:28;;;;;;;9.93;0.98;;;;;;;15.90;70.66;101631.69;6170561;23;20008;-39
2022/09/18 06:35:53;;;;;;;4.80;0.90;;;;;;;15.62;71.59;101628.94;6172374;23;20522;-41
2022/09/18 06:38:19;;;;;;;7.40;0.93;;;;;;;15.49;71.15;101639.38;6155986;23;20032;-41
2022/09/18 06:40:48;;;;;;;5.97;1.10;;;;;;;15.29;71.82;101631.34;6173374;23;20016;-39
2022/09/18 06:43:14;;;;;;;7.38;1.30;;;;;;;15.67;71.63;101635.13;6165648;22;20031;-39
2022/09/18 06:45:39;;;;;;;7.65;1.30;;;;;;;15.83;70.90;101623.78;6166001;23;20821;-39
2022/09/18 06:48:06;;;;;;;11.95;1.10;;;;;;;15.96;70.49;101623.81;6159492;23;20058;-40
2022/09/18 06:50:31;;;;;;;9.30;1.30;;;;;;;15.96;70.76;101631.72;6164928;23;20020;-38
2022/09/18 06:53:05;;;;;;;7.72;1.20;;;;;;;16.06;70.14;101628.22;6168051;23;20005;-39
2022/09/18 06:55:30;;;;;;;8.20;1.17;;;;;;;15.89;70.85;101635.19;6168561;22;20016;-41
2022/09/18 06:57:57;;;;;;;7.60;1.40;;;;;;;16.01;69.86;101635.22;6167008;22;20019;-40
2022/09/18 07:00:23;;;;;;;9.15;1.20;;;;;;;16.15;69.39;101638.78;6161568;23;21135;-41
2022/09/18 07:03:02;;;;;;;3.78;0.90;;;;;;;16.15;68.71;101638.78;6169805;23;20005;-39
2022/09/18 07:05:30;;;;;;;6.32;1.00;;;;;;;16.14;67.98;101642.28;6175057;23;20437;-40
2022/09/18 07:07:57;;;;;;;6.28;0.80;;;;;;;16.13;67.81;101630.00;6153739;23;20019;-40
2022/09/18 07:10:23;;;;;;;5.85;0.98;;;;;;;16.24;67.66;101638.78;6171993;22;20079;-40
2022/09/18 07:12:48;;;;;;;4.60;1.13;;;;;;;15.95;67.17;101630.84;6172739;23;20050;-41
2022/09/18 07:15:18;;;;;;;5.38;0.95;;;;;;;16.16;67.19;101638.78;6170760;23;20416;-40
2022/09/18 07:17:45;;;;;;;7.65;0.90;;;;;;;16.35;67.55;101637.06;6164576;23;20009;-39
2022/09/18 07:20:11;;;;;;;5.47;0.90;;;;;;;16.31;66.84;101632.69;6161603;23;20012;-40
2022/09/18 07:22:37;;;;;;;6.65;0.98;;;;;;;16.34;66.89;101635.34;6154160;23;20112;-40
2022/09/18 07:25:05;;;;;;;7.53;1.02;;;;;;;16.62;66.08;101639.78;6167326;23;20361;-39
2022/09/18 07:27:30;;;;;;;9.15;1.20;;;;;;;16.28;66.16;101639.69;6168433;23;20499;-40
2022/09/18 07:29:57;;;;;;;8.38;0.98;;;;;;;16.31;65.76;101639.69;6161778;23;20090;-39
2022/09/18 07:32:24;;;;;;;7.45;0.88;;;;;;;16.32;65.54;101628.28;6166570;23;20016;-40
2022/09/18 07:34:52;;;;;;;9.35;1.10;;;;;;;16.60;64.54;101624.84;6167133;23;20015;-42
2022/09/18 07:37:17;;;;;;;4.90;1.00;;;;;;;16.81;64.28;101630.13;6171866;23;20012;-40
2022/09/18 07:39:43;;;;;;;6.93;1.00;;;;;;;17.17;64.62;101623.94;6166128;23;20025;-44
2022/09/18 08:58:12;;;;;;;5.22;0.77;;;;;;;16.88;62.46;101629.25;5024954;27;22360;-42
2022/09/18 09:00:49;;;;;;;3.70;0.70;;;;;;;16.71;62.56;101630.13;5026633;28;20514;-42
2022/09/18 09:03:23;;;;;;;6.18;0.80;;;;;;;16.88;62.27;101626.63;5029420;28;20053;-41
2022/09/18 09:05:54;;;;;;;6.82;0.90;;;;;;;17.11;62.19;101629.22;5023899;28;20077;-41
2022/09/18 09:08:47;;;;;;;5.75;0.90;;;;;;;17.27;62.43;101623.03;5018760;28;20060;-42
2022/09/18 09:11:37;;;;;;;5.32;0.70;;;;;;;17.40;60.83;101622.13;5037991;28;20135;-40
2022/09/18 09:14:19;;;;;;;2.75;0.63;;;;;;;17.66;60.55;101610.66;5011667;28;20045;-43
2022/09/18 09:16:50;;;;;;;7.40;0.82;;;;;;;17.61;61.43;101608.03;5009404;28;20057;-42
2022/09/18 09:19:32;;;;;;;4.05;0.80;;;;;;;17.59;62.10;101606.25;5027759;28;20718;-40
2022/09/18 09:22:06;;;;;;;5.25;0.98;;;;;;;17.36;61.16;101617.75;5014013;28;20052;-42
2022/09/18 09:24:32;;;;;;;;;;;;;;;17.42;61.64;101611.59;5024319;28;20048;-41
2022/09/18 09:27:01;;;;;;;7.55;1.15;;;;;;;16.93;62.52;101631.88;5020692;28;20776;-42
2022/09/18 09:29:30;;;;;;;8.40;1.20;;;;;;;16.39;63.31;101656.38;5022955;28;20076;-39
2022/09/18 09:32:09;;;;;;;4.30;0.60;;;;;;;16.15;64.81;101660.72;4996700;28;20050;-37
2022/09/18 09:34:45;;;;;;;5.10;0.77;;;;;;;15.76;65.50;101657.91;5004479;28;20033;-44
2022/09/18 09:37:18;;;;;;;3.50;0.60;;;;;;;15.89;66.33;101650.97;4998670;28;20384;-39
2022/09/18 09:39:52;;;;;;;7.90;1.05;;;;;;;15.88;67.26;101651.84;4989303;28;20046;-38
2022/09/18 09:42:29;;;;;;;3.08;0.90;;;;;;;15.57;67.15;101656.94;5003030;28;20038;-38
2022/09/18 09:45:13;;;;;;;3.47;0.80;;;;;;;15.80;67.62;101641.28;4998973;28;20129;-38
2022/09/18 09:47:49;;;;;;;5.17;0.83;;;;;;;15.97;67.55;101636.97;5001156;28;20026;-38
2022/09/18 09:50:31;;;;;;;3.50;0.85;;;;;;;15.95;67.15;101636.09;4996052;28;20324;-39
2022/09/18 09:53:01;;;;;;;6.45;0.63;;;;;;;16.05;66.18;101643.13;5008070;28;20030;-39
2022/09/18 09:55:32;;;;;;;4.70;0.70;;;;;;;16.07;67.35;101638.75;5003693;28;20026;-39
2022/09/18 09:58:17;;;;;;;10.85;1.00;;;;;;;16.24;66.34;101633.53;5017595;28;20037;-39
2022/09/18 10:00:48;;;;;;;;;;;;;;;16.36;67.62;101625.66;5020360;28;20494;-38
2022/09/18 10:03:51;;;;;;;7.38;1.08;;;;;;;16.22;67.61;101630.03;5019121;28;19932;-37
2022/09/18 10:06:49;;;;;;;8.30;0.95;;;;;;;16.29;67.48;101629.16;5019147;28;20135;-38
2022/09/18 10:09:20;;;;;;;6.05;0.98;;;;;;;16.63;66.51;101635.38;5008973;28;20119;-37
2022/09/18 10:11:56;;;;;;;4.80;0.80;;;;;;;16.89;65.24;101631.03;5010744;28;20125;-39
2022/09/18 10:14:25;;;;;;;4.13;0.80;;;;;;;17.30;64.53;101622.16;5009319;28;20048;-37
2022/09/18 10:16:52;;;;;;;4.25;0.77;;;;;;;17.43;64.12;101619.50;5010049;28;20240;-39
2022/09/18 10:19:20;;;;;;;4.95;0.70;;;;;;;17.65;62.99;101630.88;5014775;28;20048;-38
2022/09/18 10:21:49;;;;;;;2.78;0.80;;;;;;;17.92;63.00;101635.16;5008302;28;20618;-38
2022/09/18 10:24:27;;;;;;;5.53;0.82;;;;;;;17.53;62.50;101630.00;5003470;28;20043;-40
2022/09/18 10:27:04;;;;;;;7.70;1.00;;;;;;;17.66;63.43;101642.31;5004951;28;20045;-42
2022/09/18 10:29:29;;;;;;;5.90;1.00;;;;;;;16.99;64.91;101645.94;5010488;28;20041;-39
2022/09/18 10:31:58;;;;;;;6.10;1.05;;;;;;;16.83;65.37;101656.47;5005256;28;20041;-41
2022/09/18 10:34:49;;;;;;;5.38;0.90;;;;;;;16.72;66.29;101656.44;5006709;28;20033;-40
2022/09/18 10:37:27;;;;;;;5.53;1.05;;;;;;;16.36;68.97;101654.59;5010975;28;20033;-38
2022/09/18 10:39:58;;;;;;;9.30;1.20;;;;;;;15.88;69.34;101657.97;5007450;28;20130;-41
2022/09/18 10:42:27;;;;;;;3.33;0.80;;;;;;;16.35;69.32;101646.69;5009405;28;20470;-39
2022/09/18 10:44:59;;;;;;;5.35;0.93;;;;;;;16.84;68.27;101650.31;5009349;28;20036;-42
2022/09/18 10:47:27;;;;;;;6.97;0.90;;;;;;;16.60;69.01;101653.81;5008261;28;20125;-40
2022/09/18 10:50:05;;;;;;;8.23;1.10;;;;;;;16.18;70.07;101654.56;5015127;28;20025;-39
2022/09/18 10:52:41;;;;;;;5.32;0.80;;;;;;;16.15;70.42;101665.09;5010182;28;20510;-40
2022/09/18 10:55:11;;;;;;;7.97;1.00;;;;;;;16.09;70.65;101671.22;5011823;28;20423;-39
2022/09/18 10:57:44;;;;;;;4.72;1.00;;;;;;;16.09;71.06;101660.69;5008553;28;20103;-38
2022/09/18 11:00:19;;;;;;;6.53;1.00;;;;;;;15.90;72.10;101658.88;5015045;28;20111;-38
2022/09/18 11:03:22;;;;;;;4.43;0.98;;;;;;;16.39;71.44;101652.00;5005290;28;20505;-38
2022/09/18 11:05:58;;;;;;;6.63;0.90;;;;;;;16.31;70.77;101647.59;4984357;28;20541;-39
2022/09/18 11:08:36;;;;;;;6.85;0.98;;;;;;;16.32;71.23;101647.59;5005688;28;20797;-39
2022/09/18 11:11:18;;;;;;;3.88;0.80;;;;;;;16.17;71.47;101653.69;5010304;28;20053;-38
2022/09/18 11:13:51;;;;;;;6.75;0.88;;;;;;;16.01;71.39;101648.38;5008884;28;20025;-37
2022/09/18 11:16:26;;;;;;;7.90;0.98;;;;;;;16.14;71.28;101658.06;5002545;28;20041;-38
2022/09/18 11:19:05;;;;;;;6.63;1.08;;;;;;;16.36;70.67;101651.09;5014484;28;20503;-39
2022/09/18 11:21:30;;;;;;;9.32;1.00;;;;;;;16.29;71.04;101651.94;5007645;28;20049;-39
2022/09/18 11:24:05;;;;;;;5.63;0.88;;;;;;;16.48;70.85;101654.63;5008110;28;20025;-40
2022/09/18 11:26:31;;;;;;;6.75;1.20;;;;;;;16.16;72.00;101664.22;5005552;28;20434;-39
2022/09/18 11:29:20;;;;;;;5.80;0.90;;;;;;;16.05;71.76;101648.38;5008643;28;20030;-39
2022/09/18 11:31:50;;;;;;;6.13;0.85;;;;;;;16.43;71.13;101637.09;5009015;28;20029;-40
2022/09/18 11:34:26;;;;;;;4.63;0.75;;;;;;;16.17;71.79;101634.38;5002898;28;20033;-39
2022/09/18 11:36:56;;;;;;;4.32;0.93;;;;;;;16.33;71.81;101644.09;5006354;28;20639;-39
2022/09/18 11:39:27;;;;;;;6.43;1.00;;;;;;;16.63;70.99;101649.44;5020583;28;20491;-38
2022/09/18 11:41:53;;;;;;;5.07;0.93;;;;;;;16.72;70.23;101645.91;5008071;28;20025;-39
2022/09/18 11:44:30;;;;;;;8.82;0.90;;;;;;;16.74;70.81;101648.56;5000681;28;20045;-39
2022/09/18 11:47:23;;;;;;;3.70;1.05;;;;;;;16.61;70.86;101640.66;5008424;28;20112;-38
2022/09/18 11:49:57;;;;;;;5.00;1.08;;;;;;;16.69;71.08;101637.16;5007217;28;20026;-38
2022/09/18 11:52:32;;;;;;;5.53;1.00;;;;;;;17.00;70.37;101639.78;5023680;28;20033;-38
2022/09/18 11:55:02;;;;;;;7.85;1.00;;;;;;;16.88;70.83;101633.66;5003813;28;20040;-38
2022/09/18 11:57:34;;;;;;;7.28;1.20;;;;;;;17.20;70.83;101634.47;5003099;28;20042;-38
2022/09/18 12:00:07;;;;;;;6.72;1.20;;;;;;;17.04;71.00;101633.63;5005778;28;20602;-38
2022/09/18 12:02:41;;;;;;;6.90;1.00;;;;;;;17.48;69.70;101637.94;4999269;28;20050;-38
2022/09/18 12:05:17;;;;;;;5.05;1.00;;;;;;;17.63;69.77;101631.75;5003909;28;20149;-38
2022/09/18 12:07:48;;;;;;;10.50;1.42;;;;;;;17.65;69.42;101632.63;5004829;28;20468;-39
2022/09/18 12:10:28;;;;;;;7.75;1.10;;;;;;;17.74;69.59;101637.88;5001518;28;20044;-38
2022/09/18 12:13:12;;;;;;;6.68;1.10;;;;;;;17.64;68.44;101633.50;5012585;28;20479;-44
2022/09/18 12:15:41;;;;;;;7.38;1.00;;;;;;;17.39;69.36;101635.31;4998967;28;20034;-39
2022/09/18 12:18:24;;;;;;;6.68;1.20;;;;;;;17.59;68.88;101625.59;5006055;28;20025;-38
2022/09/18 12:21:00;;;;;;;5.78;1.15;;;;;;;17.54;67.99;101629.13;5005445;28;20045;-38
2022/09/18 12:23:26;;;;;;;6.38;1.10;;;;;;;17.42;68.37;101627.41;5008852;28;20032;-39
2022/09/18 12:26:13;;;;;;;5.85;1.10;;;;;;;17.13;67.58;101624.84;5011188;28;20129;-39
2022/09/18 12:28:59;;;;;;;4.30;1.00;;;;;;;17.24;66.38;101623.06;5010861;28;20034;-39
2022/09/18 12:31:33;;;;;;;5.07;0.93;;;;;;;17.30;66.46;101623.03;5007898;28;20041;-38
2022/09/18 12:34:17;;;;;;;6.93;0.90;;;;;;;17.35;65.86;101616.00;5005115;28;20415;-39
2022/09/18 12:36:49;;;;;;;3.83;0.85;;;;;;;17.14;64.83;101612.56;5002780;28;20073;-38
2022/09/18 12:40:00;;;;;;;6.15;0.90;;;;;;;17.29;64.47;101612.50;5000574;28;20034;-38
2022/09/18 12:42:40;;;;;;;4.13;0.73;;;;;;;17.42;65.17;101617.75;4971966;28;20470;-38
2022/09/18 12:45:26;;;;;;;7.20;1.10;;;;;;;17.03;66.04;101628.34;4973114;28;20499;-38
2022/09/18 12:48:22;;;;;;;4.85;0.90;;;;;;;16.08;67.82;101648.41;4989861;28;20092;-39
2022/09/18 12:51:29;;;;;;;5.50;0.90;;;;;;;15.99;69.23;101661.50;4992390;28;29899;-38
2022/09/18 12:54:00;;;;;;;7.15;1.10;;;;;;;16.55;66.61;101664.31;5001450;28;20765;-40
2022/09/18 12:56:47;;;;;;;6.50;1.02;;;;;;;16.44;67.73;101658.16;5000795;28;20528;-38
2022/09/18 12:59:44;;;;;;;3.97;0.88;;;;;;;15.97;69.70;101670.28;5023448;28;20070;-39
2022/09/18 13:02:22;;;;;;;7.28;0.90;;;;;;;15.55;70.87;101668.34;5036234;28;20027;-38
2022/09/18 13:05:04;;;;;;;8.73;1.10;;;;;;;15.65;71.60;101668.38;5043868;28;20029;-38